Time,TemperatureF,DewpointF,PressureIn,WindDirection,WindDirectionDegrees,WindSpeedMPH,WindSpeedGustMPH,Humidity,HourlyPrecipIn,Conditions,Clouds,dailyrainin,SoftwareType,DateUTC
2015-05-30 00:14:00,57.4,57.0,30.09,ESE,107,1.0,3.0,97,0.00,,,0.00,weatherlink.com 1.10,2015-05-30 04:14:00,
2015-05-30 00:29:00,57.6,57.0,30.09,East,101,1.0,4.0,97,0.00,,,0.00,weatherlink.com 1.10,2015-05-30 04:29:00,
2015-05-30 00:44:00,58.0,57.0,30.08,ESE,107,2.0,7.0,97,0.00,,,0.00,weatherlink.com 1.10,2015-05-30 04:44:00,
2015-05-30 00:59:00,58.0,57.0,30.08,ENE,57,0.0,8.0,97,0.00,,,0.00,weatherlink.com 1.10,2015-05-30 04:59:00,
2015-05-30 01:14:00,58.0,57.0,30.07,ESE,102,0.0,10.0,97,0.00,,,0.00,weatherlink.com 1.10,2015-05-30 05:14:00,
2015-05-30 01:29:00,57.7,57.0,30.07,ENE,76,0.0,7.0,97,0.00,,,0.00,weatherlink.com 1.10,2015-05-30 05:29:00,
2015-05-30 01:44:00,57.7,57.0,30.07,East,88,1.0,4.0,97,0.00,,,0.00,weatherlink.com 1.10,2015-05-30 05:44:00,
2015-05-30 01:59:00,57.5,57.0,30.07,ESE,121,0.0,5.0,97,0.00,,,0.00,weatherlink.com 1.10,2015-05-30 05:59:00,
2015-05-30 02:14:00,57.5,57.0,30.07,East,83,1.0,8.0,97,0.00,,,0.00,weatherlink.com 1.10,2015-05-30 06:14:00,
2015-05-30 02:29:00,57.3,57.0,30.07,ENE,62,0.0,4.0,97,0.00,,,0.00,weatherlink.com 1.10,2015-05-30 06:29:00,
2015-05-30 02:44:00,57.2,57.0,30.06,ENE,68,0.0,7.0,98,0.00,,,0.00,weatherlink.com 1.10,2015-05-30 06:44:00,
2015-05-30 02:59:00,57.2,57.0,30.06,ENE,74,2.0,3.0,98,0.00,,,0.00,weatherlink.com 1.10,2015-05-30 06:59:00,
2015-05-30 03:14:00,56.9,56.0,30.06,NE,52,0.0,5.0,97,0.00,,,0.00,weatherlink.com 1.10,2015-05-30 07:14:00,
2015-05-30 03:29:00,56.6,56.0,30.05,East,81,2.0,2.0,97,0.00,,,0.00,weatherlink.com 1.10,2015-05-30 07:29:00,
2015-05-30 03:44:00,56.5,56.0,30.05,ENE,68,2.0,2.0,98,0.00,,,0.00,weatherlink.com 1.10,2015-05-30 07:44:00,
2015-05-30 03:59:00,56.5,56.0,30.05,ESE,117,0.0,4.0,98,0.00,,,0.00,weatherlink.com 1.10,2015-05-30 07:59:00,
2015-05-30 04:14:00,56.4,56.0,30.05,NE,40,1.0,3.0,97,0.00,,,0.00,weatherlink.com 1.10,2015-05-30 08:14:00,
2015-05-30 04:29:00,56.3,56.0,30.06,ENE,73,0.0,5.0,97,0.00,,,0.00,weatherlink.com 1.10,2015-05-30 08:29:00,
2015-05-30 04:44:00,56.3,56.0,30.06,ESE,113,0.0,4.0,97,0.00,,,0.00,weatherlink.com 1.10,2015-05-30 08:44:00,
2015-05-30 04:59:00,56.2,55.0,30.06,East,86,0.0,2.0,97,0.00,,,0.00,weatherlink.com 1.10,2015-05-30 08:59:00,
2015-05-30 05:14:00,56.0,56.0,30.07,ENE,77,0.0,7.0,98,0.00,,,0.00,weatherlink.com 1.10,2015-05-30 09:14:00,
2015-05-30 05:29:00,55.7,55.0,30.07,ENE,63,0.0,1.0,97,0.00,,,0.00,weatherlink.com 1.10,2015-05-30 09:29:00,
2015-05-30 05:44:00,55.3,55.0,30.07,ENE,71,0.0,1.0,98,0.00,,,0.00,weatherlink.com 1.10,2015-05-30 09:44:00,
2015-05-30 05:59:00,55.0,54.0,30.08,East,80,0.0,1.0,97,0.00,,,0.00,weatherlink.com 1.10,2015-05-30 09:59:00,
2015-05-30 06:14:00,54.8,54.0,30.08,NE,53,0.0,2.0,98,0.00,,,0.00,weatherlink.com 1.10,2015-05-30 10:14:00,
2015-05-30 06:44:00,54.9,54.0,30.09,ENE,74,0.0,5.0,97,0.00,,,0.00,weatherlink.com 1.10,2015-05-30 10:44:00,
2015-05-30 06:59:00,54.8,54.0,30.10,East,93,0.0,2.0,98,0.00,,,0.00,weatherlink.com 1.10,2015-05-30 10:59:00,
2015-05-30 07:14:00,54.9,54.0,30.09,ENE,70,0.0,1.0,98,0.00,,,0.00,weatherlink.com 1.10,2015-05-30 11:14:00,
2015-05-30 07:29:00,55.2,55.0,30.10,East,84,0.0,1.0,98,0.00,,,0.00,weatherlink.com 1.10,2015-05-30 11:29:00,
2015-05-30 07:59:00,55.6,55.0,30.11,ENE,78,0.0,1.0,97,0.00,,,0.00,weatherlink.com 1.10,2015-05-30 11:59:00,
2015-05-30 08:14:00,55.9,55.0,30.11,ENE,75,0.0,1.0,98,0.00,,,0.00,weatherlink.com 1.10,2015-05-30 12:14:00,
2015-05-30 09:00:00,57.9,57.0,30.11,East,98,0.0,1.0,97,0.00,,,0.00,weatherlink.com 1.10,2015-05-30 13:00:00,
2015-05-30 09:15:00,59.1,58.0,30.11,ESE,106,2.0,5.0,96,0.00,,,0.00,weatherlink.com 1.10,2015-05-30 13:15:00,
2015-05-30 09:59:00,61.6,57.0,30.11,NNW,329,1.0,3.0,86,0.00,,,0.00,weatherlink.com 1.10,2015-05-30 13:59:00,
2015-05-30 10:14:00,62.5,58.0,30.11,ENE,68,0.0,7.0,85,0.00,,,0.00,weatherlink.com 1.10,2015-05-30 14:14:00,
2015-05-30 10:29:00,63.0,57.0,30.11,NE,40,0.0,5.0,81,0.00,,,0.00,weatherlink.com 1.10,2015-05-30 14:29:00,
2015-05-30 10:44:00,63.1,58.0,30.11,SSW,212,1.0,5.0,82,0.00,,,0.00,weatherlink.com 1.10,2015-05-30 14:44:00,
2015-05-30 10:59:00,63.8,58.0,30.11,NW,323,0.0,7.0,81,0.00,,,0.00,weatherlink.com 1.10,2015-05-30 14:59:00,
2015-05-30 11:14:00,64.6,58.0,30.11,ESE,102,2.0,5.0,80,0.00,,,0.00,weatherlink.com 1.10,2015-05-30 15:14:00,
2015-05-30 11:29:00,62.5,57.0,30.11,ENE,59,1.0,4.0,83,0.00,,,0.00,weatherlink.com 1.10,2015-05-30 15:29:00,
2015-05-30 11:44:00,62.0,58.0,30.11,East,86,0.0,5.0,85,0.00,,,0.00,weatherlink.com 1.10,2015-05-30 15:44:00,
2015-05-30 11:59:00,61.3,57.0,30.11,ENE,68,1.0,5.0,85,0.00,,,0.00,weatherlink.com 1.10,2015-05-30 15:59:00,
2015-05-30 12:14:00,60.5,57.0,30.11,ENE,74,1.0,2.0,87,0.00,,,0.00,weatherlink.com 1.10,2015-05-30 16:14:00,
2015-05-30 12:29:00,61.9,58.0,30.10,South,169,0.0,5.0,86,0.00,,,0.00,weatherlink.com 1.10,2015-05-30 16:29:00,
2015-05-30 12:44:00,62.4,57.0,30.10,East,98,2.0,9.0,83,0.00,,,0.00,weatherlink.com 1.10,2015-05-30 16:44:00,
2015-05-30 12:59:00,62.4,57.0,30.10,ENE,71,0.0,5.0,82,0.00,,,0.00,weatherlink.com 1.10,2015-05-30 16:59:00,
2015-05-30 13:14:00,64.8,58.0,30.09,SE,136,6.0,7.0,79,0.00,,,0.00,weatherlink.com 1.10,2015-05-30 17:14:00,
2015-05-30 13:29:00,64.7,57.0,30.09,NNE,26,2.0,10.0,77,0.00,,,0.00,weatherlink.com 1.10,2015-05-30 17:29:00,
2015-05-30 13:44:00,64.9,58.0,30.08,East,101,1.0,7.0,78,0.00,,,0.00,weatherlink.com 1.10,2015-05-30 17:44:00,
2015-05-30 13:59:00,65.0,58.0,30.08,East,89,3.0,9.0,78,0.00,,,0.00,weatherlink.com 1.10,2015-05-30 17:59:00,
2015-05-30 14:14:00,65.4,58.0,30.07,East,94,2.0,7.0,78,0.00,,,0.00,weatherlink.com 1.10,2015-05-30 18:14:00,
2015-05-30 14:29:00,65.7,58.0,30.07,SSW,205,2.0,7.0,75,0.00,,,0.00,weatherlink.com 1.10,2015-05-30 18:29:00,
2015-05-30 14:44:00,65.2,58.0,30.07,ESE,102,3.0,7.0,77,0.00,,,0.00,weatherlink.com 1.10,2015-05-30 18:44:00,
2015-05-30 14:59:00,66.0,59.0,30.06,ENE,73,4.0,4.0,79,0.00,,,0.00,weatherlink.com 1.10,2015-05-30 18:59:00,
2015-05-30 15:14:00,65.5,58.0,30.05,NNW,340,1.0,8.0,78,0.00,,,0.00,weatherlink.com 1.10,2015-05-30 19:14:00,
2015-05-30 15:29:00,65.2,58.0,30.05,NNE,24,3.0,5.0,77,0.00,,,0.00,weatherlink.com 1.10,2015-05-30 19:29:00,
2015-05-30 15:44:00,66.6,59.0,30.05,NNE,20,2.0,9.0,76,0.00,,,0.00,weatherlink.com 1.10,2015-05-30 19:44:00,
2015-05-30 15:59:00,65.0,58.0,30.04,North,360,1.0,11.0,79,0.00,,,0.00,weatherlink.com 1.10,2015-05-30 19:59:00,
2015-05-30 16:14:00,67.2,61.0,30.03,East,84,1.0,7.0,79,0.00,,,0.00,weatherlink.com 1.10,2015-05-30 20:14:00,
2015-05-30 16:29:00,67.2,59.0,30.03,WNW,293,1.0,8.0,76,0.00,,,0.00,weatherlink.com 1.10,2015-05-30 20:29:00,
2015-05-30 16:44:00,66.1,59.0,30.03,ENE,77,2.0,7.0,78,0.00,,,0.00,weatherlink.com 1.10,2015-05-30 20:44:00,
2015-05-30 16:59:00,65.1,58.0,30.03,ENE,63,2.0,7.0,79,0.00,,,0.00,weatherlink.com 1.10,2015-05-30 20:59:00,
2015-05-30 17:14:00,63.8,59.0,30.02,East,83,0.0,5.0,84,0.00,,,0.00,weatherlink.com 1.10,2015-05-30 21:14:00,
2015-05-30 17:29:00,65.2,59.0,30.02,ENE,67,0.0,4.0,79,0.00,,,0.00,weatherlink.com 1.10,2015-05-30 21:29:00,
2015-05-30 17:44:00,64.9,59.0,30.02,ENE,64,1.0,5.0,80,0.00,,,0.00,weatherlink.com 1.10,2015-05-30 21:44:00,